map of KIBM home
KIBM - Airport
Location
City:  Kimball, Nebraska, United States
Name:Kimball Municipal/Robert E Arraj Field
ICAO:KIBM
FAA LID:IBM

Details
Type:Airport (Airfield)
Use:Public/Civil
Latitude:4111'17"N (41.188056)
Longitude:10340'39"W (-103.677388)
Datum:WGS 1984
Elevation:4925 ft (1501 m)
Variation:7.54E (WMM2015v2 magnetic declination)
-0.09 annual change
Runways:1
Longest:6199 × 75 ft (1889 × 23 m), paved

Time
Time Zone:UTC-6 (DST-5)
Local Time:

Weather
METAR:KIBM 041415Z AUTO 10003KT 1/4SM -SN OVC003 M10/M12 A2979 RMK AO2 T11051117

Related Locations
Nearby:
Farthest:RRG: 10771 mi / 17334 km
Plaine Corail [Sir Gatan Duval Airport (Plaine Corail Airport)], Rodrigues Island, MU

Find:

   beyond  
but within

Other Information
Maps:
NOTAMs:
Links:
Sources:

  
  • flag of United States
  • flag of Nebraska
  

Sectional Chart

Flight Planning
at skyvector.com

Satellite Image

Google Maps Satellite view

 

Copyright © 2004-2019 Karl L. Swartz. All rights reserved.
The Great Circle Mapper name and logo are trademarks of the Great Circle Mapper.
All other trademarks mentioned herein belong to their respective owners.
Please see credits for attibutions and further copyright information.

  Follow gcmap on Facebook Follow gcmap on Twitter GCmap on LinkedIn

hCard Microformat

Geo Microformat